createdAt,value
2022-11-14T00:00:17.879Z,2.40
2022-11-14T00:05:17.824Z,2.70
2022-11-14T00:10:17.776Z,2.10
2022-11-14T00:15:17.841Z,2.20
2022-11-14T00:20:17.710Z,2.80
2022-11-14T00:25:17.604Z,3.50
2022-11-14T05:00:29.260Z,4.00
2022-11-14T05:05:29.217Z,4.90
2022-11-14T05:10:29.139Z,5.50
2022-11-14T05:15:29.087Z,4.90
2022-11-14T05:20:29.027Z,6.50
2022-11-14T05:25:29.012Z,6.00
2022-11-14T05:30:28.918Z,7.20
2022-11-14T05:35:28.896Z,6.80
2022-11-14T05:40:28.819Z,7.40
2022-11-14T05:45:28.798Z,12.10
2022-11-14T05:50:28.713Z,7.40
2022-11-14T05:55:28.655Z,7.20
2022-11-14T06:00:28.630Z,8.40
2022-11-14T06:05:28.574Z,6.80
2022-11-14T06:10:28.492Z,8.60
2022-11-14T06:15:28.456Z,8.40
2022-11-14T06:20:28.391Z,10.00
2022-11-14T06:25:28.364Z,10.30
2022-11-14T06:30:28.297Z,9.00
2022-11-14T06:35:28.226Z,9.60
2022-11-14T06:40:28.173Z,12.80
2022-11-14T06:45:28.140Z,9.90
2022-11-14T06:50:28.068Z,9.50
2022-11-14T06:55:28.016Z,10.60
2022-11-14T07:00:27.962Z,9.60
2022-11-14T07:05:27.957Z,10.80
2022-11-14T07:10:27.884Z,11.60
2022-11-14T07:15:27.802Z,9.40
2022-11-14T07:20:27.751Z,11.10
2022-11-14T07:25:27.716Z,12.20
2022-11-14T07:30:27.641Z,10.80
2022-11-14T07:35:27.616Z,10.70
2022-11-14T07:40:27.533Z,11.30
2022-11-14T07:45:27.566Z,12.30
2022-11-14T07:50:27.423Z,12.80
2022-11-14T07:55:27.408Z,12.80
2022-11-14T08:00:27.347Z,13.40
2022-11-14T08:05:27.298Z,15.70
2022-11-14T08:10:31.012Z,18.30
2022-11-14T08:15:28.176Z,19.20
2022-11-14T08:20:27.203Z,19.60
2022-11-14T08:25:27.068Z,19.90
2022-11-14T08:30:27.036Z,18.80
2022-11-14T08:35:26.940Z,18.20
2022-11-14T08:40:26.891Z,18.40
2022-11-14T08:45:26.878Z,21.90
2022-11-14T08:50:26.787Z,22.80
2022-11-14T08:55:26.730Z,23.30
2022-11-14T09:00:26.676Z,21.70
2022-11-14T09:05:26.677Z,22.50
2022-11-14T09:10:26.587Z,23.60
2022-11-14T09:15:26.565Z,20.00
2022-11-14T09:20:31.665Z,21.80
2022-11-14T09:25:27.435Z,22.30
2022-11-14T09:30:26.355Z,20.90
2022-11-14T09:35:26.295Z,21.70
2022-11-14T09:40:26.262Z,19.40
2022-11-14T09:45:26.234Z,19.10
2022-11-14T09:50:26.330Z,16.70
2022-11-14T09:55:26.083Z,17.20
2022-11-14T10:00:26.027Z,17.90
2022-11-14T10:05:26.030Z,14.40
2022-11-14T10:10:25.939Z,14.20
2022-11-14T10:15:31.120Z,15.10
2022-11-14T10:20:26.815Z,15.00
2022-11-14T10:25:25.782Z,14.00
2022-11-14T10:30:25.735Z,13.30
2022-11-14T10:35:25.652Z,14.80
2022-11-14T10:40:25.624Z,14.60
2022-11-14T10:45:25.600Z,17.00
2022-11-14T10:50:25.490Z,17.00
2022-11-14T10:55:49.760Z,16.90
2022-11-14T11:00:26.390Z,14.70
2022-11-14T11:05:25.354Z,17.40
2022-11-14T11:10:25.278Z,15.60
2022-11-14T11:15:33.275Z,16.10
2022-11-14T11:20:25.171Z,17.50
2022-11-14T11:25:25.162Z,18.20
2022-11-14T11:30:25.067Z,16.30
2022-11-14T11:35:25.017Z,17.20
2022-11-14T11:40:24.958Z,15.90
2022-11-14T11:45:24.923Z,14.80
2022-11-14T11:50:24.855Z,15.60
2022-11-14T11:55:24.805Z,15.90
2022-11-14T12:00:24.751Z,14.50
2022-11-14T12:05:24.712Z,14.60
2022-11-14T12:10:24.644Z,16.00
2022-11-14T12:15:24.593Z,13.50
2022-11-14T12:20:24.534Z,13.40
2022-11-14T12:25:24.521Z,12.20
2022-11-14T12:30:24.429Z,14.90
2022-11-14T12:35:24.508Z,14.50
2022-11-14T12:40:24.326Z,15.50
2022-11-14T12:45:24.292Z,13.50
2022-11-14T12:50:24.220Z,14.30
2022-11-14T12:55:24.169Z,15.30
2022-11-14T13:00:24.109Z,15.10
2022-11-14T13:05:24.075Z,14.70
2022-11-14T13:10:24.013Z,18.20
2022-11-14T13:15:23.954Z,15.30
2022-11-14T13:20:23.970Z,16.20
2022-11-14T13:25:23.902Z,16.00
2022-11-14T13:30:23.788Z,17.00
2022-11-14T13:35:23.738Z,15.30
2022-11-14T13:40:23.681Z,16.90
2022-11-14T13:45:23.648Z,15.00
2022-11-14T13:50:23.585Z,18.10
2022-11-14T13:55:23.526Z,16.40
2022-11-14T14:00:23.479Z,16.40
2022-11-14T14:05:23.462Z,16.70
2022-11-14T14:10:23.366Z,15.50
2022-11-14T14:15:23.310Z,19.10
2022-11-14T14:20:23.256Z,15.20
2022-11-14T14:25:23.223Z,17.70
2022-11-14T14:30:23.151Z,16.60
2022-11-14T14:35:23.099Z,15.70
2022-11-14T14:40:23.042Z,18.40
2022-11-14T14:45:23.015Z,16.50
2022-11-14T14:50:22.938Z,15.20
2022-11-14T14:55:22.882Z,18.00
2022-11-14T15:00:22.825Z,16.50
2022-11-14T15:05:22.809Z,16.60
2022-11-14T15:10:22.721Z,16.60
2022-11-14T15:15:22.671Z,18.30
2022-11-14T15:20:22.613Z,16.80
2022-11-14T15:25:22.630Z,15.10
2022-11-14T15:30:22.508Z,18.30
2022-11-14T15:35:25.305Z,15.80
2022-11-14T15:40:22.399Z,19.60
2022-11-14T15:45:22.377Z,17.30
2022-11-14T15:50:22.288Z,17.30
2022-11-14T15:55:22.243Z,19.20
2022-11-14T16:00:22.184Z,17.70
2022-11-14T16:05:22.148Z,16.00
2022-11-14T16:10:22.076Z,16.60
2022-11-14T16:15:22.041Z,16.60
2022-11-14T16:20:21.963Z,16.70
2022-11-14T16:25:21.941Z,16.30
2022-11-14T16:30:21.864Z,16.40
2022-11-14T16:35:21.811Z,19.70
2022-11-14T16:40:21.753Z,14.10
2022-11-14T16:45:21.827Z,16.30
2022-11-14T16:50:21.649Z,15.90
2022-11-14T16:55:21.592Z,16.70
2022-11-14T17:00:21.536Z,16.00
2022-11-14T17:05:21.504Z,15.60
2022-11-14T17:10:21.434Z,16.40
2022-11-14T17:15:21.375Z,15.00
2022-11-14T17:20:29.386Z,19.10
2022-11-14T17:25:21.270Z,15.90
2022-11-14T17:30:21.247Z,16.30
2022-11-14T17:35:21.167Z,14.30
2022-11-14T17:40:21.227Z,16.80
2022-11-14T17:45:21.058Z,15.70
2022-11-14T17:50:21.005Z,17.80
2022-11-14T17:55:20.951Z,15.60
2022-11-14T18:00:20.910Z,17.00
2022-11-14T18:05:20.837Z,16.20
2022-11-14T18:10:20.786Z,14.10
2022-11-14T18:15:25.191Z,17.90
2022-11-14T18:20:21.700Z,16.40
2022-11-14T18:25:20.622Z,16.70
2022-11-14T18:30:40.265Z,15.50
2022-11-14T18:35:21.514Z,14.50
2022-11-14T18:40:20.475Z,15.90
2022-11-14T18:45:20.410Z,14.90
2022-11-14T18:50:20.356Z,14.30
2022-11-14T18:55:20.296Z,13.90
2022-11-14T19:00:20.332Z,13.30
2022-11-14T19:05:20.268Z,13.50
2022-11-14T19:10:20.148Z,13.50
2022-11-14T19:15:20.089Z,14.10
2022-11-14T19:20:20.053Z,12.80
2022-11-14T19:25:19.976Z,12.00
2022-11-14T19:30:19.924Z,13.40
2022-11-14T19:35:20.794Z,13.80
2022-11-14T19:40:19.839Z,13.30
2022-11-14T19:45:19.762Z,15.40
2022-11-14T19:50:19.713Z,15.10
2022-11-14T19:55:19.657Z,13.40
2022-11-14T20:00:19.625Z,14.20
2022-11-14T20:05:19.553Z,13.60
2022-11-14T20:10:19.495Z,14.00
2022-11-14T20:15:19.439Z,15.40
2022-11-14T20:20:19.409Z,14.00
2022-11-14T20:25:19.335Z,12.30
2022-11-14T20:30:19.291Z,14.90
2022-11-14T20:35:19.228Z,13.10
2022-11-14T20:40:19.194Z,16.20
2022-11-14T20:45:19.119Z,13.10
2022-11-14T20:50:19.073Z,13.80
2022-11-14T20:55:19.016Z,14.40
2022-11-14T21:00:18.983Z,16.60
2022-11-14T21:05:18.906Z,12.70
2022-11-14T21:10:18.857Z,12.80
2022-11-14T21:15:18.797Z,12.60
2022-11-14T21:20:18.764Z,11.70
2022-11-14T21:25:18.697Z,14.90
2022-11-14T21:30:18.640Z,10.30
2022-11-14T21:35:18.584Z,11.20
2022-11-14T21:40:18.550Z,10.30
2022-11-14T21:45:18.474Z,11.70
2022-11-14T21:50:18.420Z,12.00
2022-11-14T21:55:18.366Z,12.60
2022-11-14T22:00:18.330Z,11.70
2022-11-14T22:05:18.258Z,12.80
2022-11-14T22:10:18.205Z,10.80
2022-11-14T22:15:18.159Z,14.40
2022-11-14T22:20:18.112Z,11.80
2022-11-14T22:25:18.044Z,11.50
2022-11-14T22:30:17.991Z,10.50
2022-11-14T22:35:17.934Z,12.50
2022-11-14T22:40:17.903Z,12.80
2022-11-14T22:45:17.829Z,10.80
2022-11-14T22:50:17.830Z,11.20
2022-11-14T22:55:18.169Z,10.50
2022-11-14T23:00:17.727Z,13.00
2022-11-14T23:05:17.617Z,9.60
2022-11-14T23:10:17.561Z,11.10
2022-11-14T23:15:17.507Z,9.30
2022-11-14T23:20:24.514Z,11.50
2022-11-14T23:25:17.414Z,10.60
2022-11-14T23:30:17.343Z,11.50
2022-11-14T23:35:17.291Z,12.70
2022-11-14T23:40:17.277Z,10.00
2022-11-14T23:45:17.194Z,9.10
2022-11-14T23:50:17.139Z,11.20
2022-11-14T23:55:17.105Z,8.70
